Time;durP1;ratioP1;P1;durP2;ratioP2;P2;SDS_P1;SDS_P2;PMS_P1;PMS_P2;Temp;Humidity;BMP_temperature;BMP_pressure;BME280_temperature;BME280_humidity;BME280_pressure;Samples;Min_cycle;Max_cycle;Signal;HPM_P1;HPM_P2
2021/04/10 00:01:42;;;;;;;10.68;1.50;;;;;;;26.56;27.51;96235.88;5064333;28;20040;-26
2021/04/10 00:04:09;;;;;;;1.83;1.00;;;;;;;26.57;27.46;96245.44;5066752;28;20587;-26
2021/04/10 00:06:34;;;;;;;2.35;1.15;;;;;;;26.56;27.59;96242.00;5062112;28;20035;-26
2021/04/10 00:09:00;;;;;;;1.90;1.00;;;;;;;26.56;27.66;96247.25;5065110;28;20025;-26
2021/04/10 00:11:26;;;;;;;3.28;1.10;;;;;;;26.57;27.63;96251.56;5062977;28;20028;-25
2021/04/10 00:13:52;;;;;;;2.83;1.15;;;;;;;26.57;27.61;96246.28;5066701;28;20024;-26
2021/04/10 00:16:17;;;;;;;2.83;1.05;;;;;;;26.57;27.65;96245.44;5068081;27;20539;-29
2021/04/10 00:18:42;;;;;;;3.15;1.00;;;;;;;26.55;27.68;96248.16;5067912;28;20036;-24
2021/04/10 00:21:08;;;;;;;3.50;1.20;;;;;;;26.55;27.52;96245.53;5062844;28;20114;-26
2021/04/10 00:23:33;;;;;;;5.70;1.25;;;;;;;26.56;27.50;96249.88;5067940;28;20031;-27
2021/04/10 00:25:59;;;;;;;2.92;1.10;;;;;;;26.57;27.60;96246.28;5070101;28;20028;-27
2021/04/10 00:28:24;;;;;;;2.80;1.05;;;;;;;26.56;27.66;96247.25;5059237;28;20040;-25
2021/04/10 00:30:50;;;;;;;1.75;1.08;;;;;;;26.56;27.61;96249.88;5055753;28;20044;-25
2021/04/10 00:33:15;;;;;;;2.42;0.90;;;;;;;26.57;27.69;96242.81;5056961;28;20036;-22
2021/04/10 00:35:40;;;;;;;2.33;1.08;;;;;;;26.57;27.54;96241.03;5061766;28;20039;-25
2021/04/10 00:38:06;;;;;;;3.17;1.20;;;;;;;26.56;27.61;96242.00;5062826;28;20079;-27
2021/04/10 00:40:31;;;;;;;1.67;0.85;;;;;;;26.56;27.63;96234.09;5065408;28;20058;-26
2021/04/10 00:42:57;;;;;;;2.63;0.90;;;;;;;26.57;27.47;96234.94;5067107;28;20032;-21
2021/04/10 00:45:22;;;;;;;2.42;0.80;;;;;;;26.57;27.40;96229.69;5062032;28;20031;-27
2021/04/10 00:47:47;;;;;;;1.48;1.00;;;;;;;26.56;27.59;96230.63;5063509;28;20024;-27
2021/04/10 00:50:13;;;;;;;3.00;1.17;;;;;;;26.56;27.60;96228.84;5062967;28;20020;-25
2021/04/10 00:52:38;;;;;;;2.10;0.98;;;;;;;26.56;27.57;96233.25;5065429;28;20160;-27
2021/04/10 00:55:05;;;;;;;2.25;0.93;;;;;;;26.56;27.81;96223.59;5062296;28;20349;-26
2021/04/10 00:57:31;;;;;;;3.20;1.08;;;;;;;26.56;27.75;96220.97;5061915;28;20032;-23
2021/04/10 00:59:56;;;;;;;3.88;1.25;;;;;;;26.56;27.75;96226.22;5061730;28;20039;-26
2021/04/10 01:02:22;;;;;;;1.77;0.80;;;;;;;26.55;27.52;96224.53;5042627;28;20719;-27
2021/04/10 01:04:47;;;;;;;2.83;0.90;;;;;;;26.56;27.69;96207.84;5077427;28;20032;-24
2021/04/10 01:07:13;;;;;;;3.20;1.00;;;;;;;26.56;27.67;96209.59;5059846;28;20512;-27
2021/04/10 01:09:39;;;;;;;2.35;0.90;;;;;;;26.55;27.79;96208.75;5063237;28;20063;-26
2021/04/10 01:12:12;;;;;;;1.38;0.80;;;;;;;26.56;27.72;96210.47;5061437;28;21034;-26
2021/04/10 01:14:47;;;;;;;1.33;0.80;;;;;;;26.56;27.62;96210.47;5063917;28;20060;-27
2021/04/10 01:17:15;;;;;;;2.53;0.95;;;;;;;26.55;27.69;96200.88;5063938;28;20036;-29
2021/04/10 01:19:46;;;;;;;1.63;0.77;;;;;;;26.56;27.77;96204.34;5060780;28;20036;-27
2021/04/10 01:22:38;;;;;;;2.25;0.88;;;;;;;26.54;27.61;96209.69;5064694;28;20020;-25
2021/04/10 01:25:04;;;;;;;;;;;;;;;26.55;27.62;96202.69;5064909;28;20511;-28
2021/04/10 01:27:38;;;;;;;3.70;0.98;;;;;;;26.54;27.66;96201.81;5063257;28;19952;-25
2021/04/10 01:30:13;;;;;;;2.80;1.00;;;;;;;26.53;27.67;96202.78;5063802;28;20057;-23
2021/04/10 01:32:50;;;;;;;3.45;0.88;;;;;;;26.53;27.87;96202.78;5065688;28;20173;-28
2021/04/10 01:35:16;;;;;;;4.15;0.80;;;;;;;26.52;27.75;96201.09;5063895;28;21268;-26
2021/04/10 01:38:01;;;;;;;2.90;0.88;;;;;;;26.52;27.55;96197.59;5045346;28;20084;-26
2021/04/10 01:40:31;;;;;;;1.95;0.50;;;;;;;26.53;27.73;96201.91;5068924;28;20517;-26
2021/04/10 01:42:57;;;;;;;5.20;0.97;;;;;;;26.52;27.74;96206.34;5064991;28;20038;-27
2021/04/10 01:45:22;;;;;;;2.47;0.90;;;;;;;26.52;27.83;96206.34;5053978;27;20286;-26
2021/04/10 01:47:48;;;;;;;6.57;1.00;;;;;;;26.52;27.91;96201.09;5069305;28;20016;-25
2021/04/10 01:50:14;;;;;;;2.55;1.08;;;;;;;26.52;27.75;96206.34;5065413;28;20045;-25
2021/04/10 01:52:41;;;;;;;1.42;0.80;;;;;;;26.52;27.85;96206.34;5049230;28;20020;-27
2021/04/10 01:55:07;;;;;;;2.95;1.00;;;;;;;26.51;27.83;96204.66;5053315;28;20624;-22
2021/04/10 01:57:33;;;;;;;2.00;0.80;;;;;;;26.49;27.82;96206.53;5067480;28;20612;-25
2021/04/10 01:59:58;;;;;;;6.30;1.23;;;;;;;26.52;27.76;96201.09;5048730;28;20028;-28
2021/04/10 02:02:24;;;;;;;3.05;1.13;;;;;;;26.52;27.71;96211.59;5048806;28;20048;-25
2021/04/10 02:04:49;;;;;;;3.05;0.93;;;;;;;26.52;27.73;96211.59;5034755;28;20032;-26
2021/04/10 02:07:15;;;;;;;1.15;0.65;;;;;;;26.53;27.81;96205.41;5053769;28;20645;-27
2021/04/10 02:09:42;;;;;;;1.65;0.70;;;;;;;26.52;28.06;96208.97;5063562;28;20028;-21
2021/04/10 02:12:08;;;;;;;1.88;0.70;;;;;;;26.53;27.61;96208.03;5062730;28;20074;-28
2021/04/10 02:14:33;;;;;;;3.00;0.93;;;;;;;26.52;27.74;96208.97;5068314;28;20028;-27
2021/04/10 02:16:59;;;;;;;3.28;0.82;;;;;;;26.52;27.79;96211.59;5063460;28;20504;-29
2021/04/10 02:19:24;;;;;;;4.20;0.80;;;;;;;26.53;27.72;96207.16;5049157;28;20659;-26
2021/04/10 02:21:50;;;;;;;2.20;0.95;;;;;;;26.53;27.75;96212.41;5065536;28;20020;-28
2021/04/10 02:24:15;;;;;;;1.20;0.65;;;;;;;26.54;27.89;96208.88;5067155;28;20027;-28
2021/04/10 02:26:40;;;;;;;2.90;0.85;;;;;;;26.53;27.79;96210.66;5065938;28;20046;-27
2021/04/10 02:29:06;;;;;;;3.33;0.93;;;;;;;26.53;27.87;96218.53;5070143;28;20314;-25
2021/04/10 02:31:48;;;;;;;1.83;0.95;;;;;;;26.53;28.00;96208.03;5064638;28;20053;-27
2021/04/10 02:34:23;;;;;;;2.10;0.80;;;;;;;26.54;27.84;96214.13;5063047;28;20078;-27
2021/04/10 02:36:49;;;;;;;1.42;0.80;;;;;;;26.53;27.87;96208.03;5031461;28;20116;-28
2021/04/10 02:39:15;;;;;;;2.50;0.80;;;;;;;26.53;27.90;96208.03;5066335;28;20062;-26
2021/04/10 02:41:40;;;;;;;1.63;0.80;;;;;;;26.53;27.86;96208.03;5065869;28;20041;-28
2021/04/10 02:44:07;;;;;;;3.78;0.88;;;;;;;26.53;27.78;96213.28;5054078;28;20420;-25
2021/04/10 02:46:43;;;;;;;1.92;0.95;;;;;;;26.52;27.84;96205.50;5064972;28;20524;-24
2021/04/10 02:49:16;;;;;;;0.98;0.60;;;;;;;26.52;27.93;96206.34;5064055;28;20044;-29
2021/04/10 02:51:54;;;;;;;1.77;0.60;;;;;;;26.52;27.81;96201.09;5063656;28;20694;-24
2021/04/10 02:54:24;;;;;;;1.02;0.55;;;;;;;26.52;27.70;96203.72;5057132;28;20107;-25
2021/04/10 02:56:58;;;;;;;0.95;0.50;;;;;;;26.52;27.87;96214.22;5068464;28;20144;-25
2021/04/10 02:59:23;;;;;;;1.65;0.95;;;;;;;26.51;27.85;96215.19;5060621;28;20523;-28
2021/04/10 03:01:52;;;;;;;1.77;0.57;;;;;;;26.51;27.84;96203.81;5063402;28;20040;-27
2021/04/10 03:04:17;;;;;;;1.42;0.60;;;;;;;26.51;27.75;96204.66;5062490;28;20510;-27
2021/04/10 03:06:43;;;;;;;1.17;0.65;;;;;;;26.51;27.79;96198.56;5059399;28;20052;-26
2021/04/10 03:09:08;;;;;;;3.63;0.75;;;;;;;26.52;27.79;96200.22;5064906;28;20698;-28
2021/04/10 03:11:34;;;;;;;6.43;0.90;;;;;;;26.51;27.87;96209.94;5056057;28;20052;-24
2021/04/10 03:14:00;;;;;;;3.33;0.70;;;;;;;26.52;27.87;96208.97;5026069;28;20074;-28
2021/04/10 03:16:29;;;;;;;1.80;0.80;;;;;;;26.51;27.97;96203.81;5061734;28;20086;-29
2021/04/10 03:18:54;;;;;;;7.82;1.10;;;;;;;26.52;27.87;96216.84;5052579;28;20060;-29
2021/04/10 03:21:20;;;;;;;3.60;0.95;;;;;;;26.52;27.80;96216.00;5049682;28;20028;-24
2021/04/10 03:23:45;;;;;;;3.00;0.88;;;;;;;26.52;27.86;96222.13;5055848;28;20515;-30
2021/04/10 03:26:10;;;;;;;6.70;0.98;;;;;;;26.52;27.82;96230.00;5066438;28;20476;-27
2021/04/10 03:28:36;;;;;;;4.78;1.20;;;;;;;26.51;27.91;96224.84;5066971;28;20032;-30
2021/04/10 03:31:04;;;;;;;2.33;1.00;;;;;;;26.51;27.92;96216.94;5068544;28;20377;-25
2021/04/10 03:33:31;;;;;;;2.88;0.93;;;;;;;26.51;27.96;96219.56;5064414;28;20593;-24
2021/04/10 03:35:57;;;;;;;2.95;0.90;;;;;;;26.50;27.79;96218.72;5071796;28;20025;-27
2021/04/10 03:38:22;;;;;;;2.22;0.70;;;;;;;26.51;27.93;96214.31;5048156;28;20028;-26
2021/04/10 03:40:48;;;;;;;8.02;0.90;;;;;;;26.50;27.84;96218.72;5043073;28;20031;-27
2021/04/10 03:43:13;;;;;;;2.20;0.70;;;;;;;26.50;27.99;96217.91;5072258;28;20043;-25
2021/04/10 03:45:38;;;;;;;3.25;1.00;;;;;;;26.50;27.95;96220.53;5066100;27;20047;-26
2021/04/10 03:48:04;;;;;;;4.38;1.20;;;;;;;26.52;27.86;96226.50;5032469;28;20032;-26
2021/04/10 03:50:30;;;;;;;2.65;0.98;;;;;;;26.46;27.74;96211.97;5066821;28;20032;-23
2021/04/10 03:52:55;;;;;;;0.93;0.50;;;;;;;26.50;27.81;96221.34;5063008;28;20042;-27
2021/04/10 03:55:20;;;;;;;5.30;0.80;;;;;;;26.51;27.87;96230.09;5064858;28;20024;-28
2021/04/10 03:57:46;;;;;;;6.47;1.20;;;;;;;26.50;27.91;96226.59;5069842;28;20552;-25
2021/04/10 04:00:12;;;;;;;3.38;0.95;;;;;;;26.49;27.73;96232.81;5063756;28;20311;-26
2021/04/10 04:02:38;;;;;;;4.20;0.98;;;;;;;26.49;27.73;96238.06;5060196;28;20037;-29
2021/04/10 04:05:05;;;;;;;5.43;1.30;;;;;;;26.49;27.82;96238.06;5071218;28;20064;-28
2021/04/10 04:07:30;;;;;;;2.65;1.08;;;;;;;26.48;27.77;96239.84;5059015;28;20031;-25
2021/04/10 04:09:56;;;;;;;4.57;1.25;;;;;;;26.47;27.71;96240.78;5064048;28;20040;-27
2021/04/10 04:12:21;;;;;;;1.40;0.70;;;;;;;26.48;27.68;96236.38;5060363;28;20787;-30
2021/04/10 04:14:46;;;;;;;3.92;1.13;;;;;;;26.48;27.62;96244.28;5067564;28;20024;-26
2021/04/10 04:17:12;;;;;;;2.95;1.13;;;;;;;26.48;27.73;96245.09;5066973;28;20028;-28
2021/04/10 04:19:40;;;;;;;3.95;0.95;;;;;;;26.48;27.76;96249.53;5060566;28;20046;-26
2021/04/10 04:22:06;;;;;;;2.80;1.10;;;;;;;26.47;27.62;96250.47;5062667;28;20040;-26
2021/04/10 04:24:31;;;;;;;1.27;0.50;;;;;;;26.48;27.62;96246.91;5065897;28;20482;-26
2021/04/10 04:26:57;;;;;;;2.55;0.73;;;;;;;26.48;27.56;96262.66;5065930;28;20020;-30
2021/04/10 04:29:23;;;;;;;1.83;0.90;;;;;;;26.48;27.73;96260.03;5048317;28;20055;-23
2021/04/10 04:31:48;;;;;;;2.47;0.77;;;;;;;26.48;27.77;96263.47;5065939;28;20504;-29
2021/04/10 04:34:13;;;;;;;1.02;0.68;;;;;;;26.49;27.68;96269.59;5066080;28;20039;-28
2021/04/10 04:36:39;;;;;;;1.67;0.80;;;;;;;26.48;27.67;96268.75;5063399;28;20028;-26
2021/04/10 04:39:05;;;;;;;2.53;1.00;;;;;;;26.48;27.82;96279.25;5067832;28;20024;-28
2021/04/10 04:41:30;;;;;;;1.38;0.70;;;;;;;26.48;27.75;96283.69;5068271;28;20611;-26
2021/04/10 04:43:55;;;;;;;3.25;0.70;;;;;;;26.48;27.81;96289.75;5070136;28;20046;-25
2021/04/10 04:46:21;;;;;;;3.20;0.88;;;;;;;26.48;27.67;96283.69;5065728;28;20076;-26
2021/04/10 04:48:46;;;;;;;2.05;0.50;;;;;;;26.48;27.72;96299.44;5065442;28;20713;-29
2021/04/10 04:51:12;;;;;;;1.45;0.60;;;;;;;26.48;27.79;96300.28;5067659;28;20023;-27
2021/04/10 04:53:37;;;;;;;2.38;0.70;;;;;;;26.48;27.76;96291.56;5066518;28;20032;-28
2021/04/10 04:56:03;;;;;;;2.05;0.80;;;;;;;26.47;27.73;96303.84;5061616;28;20028;-25
2021/04/10 04:58:28;;;;;;;4.68;0.80;;;;;;;26.48;27.78;96295.00;5066011;28;20508;-29
2021/04/10 05:00:53;;;;;;;1.67;0.90;;;;;;;26.48;27.89;96302.06;5062913;28;20036;-25
2021/04/10 05:03:19;;;;;;;1.75;0.88;;;;;;;26.48;27.65;96299.44;5066067;28;20032;-26
2021/04/10 05:05:44;;;;;;;1.98;0.65;;;;;;;26.49;27.70;96306.38;5058136;28;20040;-25
2021/04/10 05:08:10;;;;;;;5.07;0.80;;;;;;;26.47;27.66;96316.97;5065803;28;20055;-27
2021/04/10 05:10:35;;;;;;;2.10;0.80;;;;;;;26.48;27.68;96317.84;5062205;28;20512;-25
2021/04/10 05:13:00;;;;;;;1.33;0.68;;;;;;;26.48;27.67;96309.97;5059571;28;20050;-27
2021/04/10 05:15:26;;;;;;;3.33;0.70;;;;;;;26.48;27.84;96312.59;5063906;28;20032;-26
2021/04/10 05:17:51;;;;;;;2.90;0.90;;;;;;;26.47;27.78;96321.41;5071236;28;20556;-26
2021/04/10 05:20:17;;;;;;;1.98;0.63;;;;;;;26.48;27.87;96320.47;5073259;28;20514;-25
2021/04/10 05:22:42;;;;;;;5.97;0.68;;;;;;;26.49;27.67;96327.41;5063065;28;20036;-28
2021/04/10 05:25:08;;;;;;;2.70;0.82;;;;;;;26.48;27.82;96320.47;5069695;28;20032;-25
2021/04/10 05:27:33;;;;;;;1.15;0.40;;;;;;;26.49;27.78;96322.16;5070506;28;20017;-27
2021/04/10 05:29:59;;;;;;;1.02;0.60;;;;;;;26.48;27.79;96326.53;5071447;28;20033;-27
2021/04/10 05:32:24;;;;;;;1.35;0.70;;;;;;;26.49;27.84;96332.66;5066316;28;20272;-27
2021/04/10 05:34:50;;;;;;;1.10;0.50;;;;;;;26.49;27.67;96335.28;5067243;28;20042;-27
2021/04/10 05:37:15;;;;;;;1.85;0.70;;;;;;;26.48;27.83;96336.22;5067791;28;20105;-28
2021/04/10 05:39:40;;;;;;;0.75;0.52;;;;;;;26.48;27.77;96342.31;5069716;28;20032;-28
2021/04/10 05:42:07;;;;;;;1.25;0.50;;;;;;;26.48;27.88;96339.69;5065085;28;20426;-24
2021/04/10 05:44:32;;;;;;;2.05;0.88;;;;;;;26.47;27.75;96343.25;5067589;28;20027;-29
2021/04/10 05:46:58;;;;;;;2.65;0.85;;;;;;;26.48;27.71;96352.00;5061377;27;20079;-26
2021/04/10 05:49:23;;;;;;;1.80;0.80;;;;;;;26.47;27.89;96351.13;5067787;28;20043;-25
2021/04/10 05:51:48;;;;;;;2.17;0.60;;;;;;;26.47;27.83;96350.31;5067734;28;20032;-28
2021/04/10 05:54:14;;;;;;;1.33;0.38;;;;;;;26.47;27.87;96359.03;5070414;28;20028;-26
2021/04/10 05:56:39;;;;;;;1.40;0.77;;;;;;;26.48;27.79;96362.50;5071191;28;20023;-28
2021/04/10 05:59:05;;;;;;;1.63;0.77;;;;;;;26.48;27.88;96359.88;5066515;28;20036;-27
2021/04/10 06:01:30;;;;;;;4.78;0.60;;;;;;;26.47;27.92;96361.66;5065707;28;20070;-29
2021/04/10 06:03:56;;;;;;;2.03;0.75;;;;;;;26.49;27.88;96369.44;5051870;28;20036;-26
2021/04/10 06:06:22;;;;;;;1.92;0.70;;;;;;;26.48;27.95;96363.31;5065858;28;20058;-26
2021/04/10 06:08:47;;;;;;;3.38;0.90;;;;;;;26.48;27.77;96367.75;5072609;28;20051;-27
2021/04/10 06:11:12;;;;;;;1.95;0.70;;;;;;;26.47;27.97;96369.53;5070137;28;20020;-26
2021/04/10 06:13:38;;;;;;;1.20;0.40;;;;;;;26.48;27.80;96375.63;5064466;28;20043;-26
2021/04/10 06:16:09;;;;;;;1.20;0.70;;;;;;;26.47;27.88;96371.34;5064068;27;21350;-27
2021/04/10 06:18:35;;;;;;;0.40;0.40;;;;;;;26.47;27.82;96366.06;5059145;28;20447;-27
2021/04/10 06:21:00;;;;;;;1.85;0.55;;;;;;;26.48;27.82;96368.59;5065307;28;20040;-24
2021/04/10 06:23:26;;;;;;;3.05;0.68;;;;;;;26.48;27.92;96370.38;5061574;28;20037;-26
2021/04/10 06:25:51;;;;;;;3.83;1.08;;;;;;;26.47;27.84;96380.03;5066970;28;20109;-25
2021/04/10 06:28:16;;;;;;;1.77;0.93;;;;;;;26.47;27.85;96377.41;5058568;28;20036;-26
2021/04/10 06:30:42;;;;;;;4.40;0.68;;;;;;;26.47;27.87;96377.41;5064889;27;20048;-29
2021/04/10 06:33:07;;;;;;;6.25;0.80;;;;;;;26.48;27.78;96375.63;5065712;28;20142;-24
2021/04/10 06:35:32;;;;;;;2.97;0.82;;;;;;;26.47;27.94;96376.59;5067109;28;20051;-25
2021/04/10 06:37:58;;;;;;;6.82;0.98;;;;;;;26.46;27.58;96369.63;5063821;28;20434;-28
2021/04/10 06:40:23;;;;;;;5.13;0.88;;;;;;;26.46;27.97;96375.72;5067117;28;20040;-25
2021/04/10 06:42:49;;;;;;;3.70;0.93;;;;;;;26.42;27.93;96368.13;5059525;28;20564;-26
2021/04/10 06:45:15;;;;;;;14.57;1.00;;;;;;;26.46;27.90;96373.09;5064431;27;20109;-26
2021/04/10 06:47:40;;;;;;;4.85;0.90;;;;;;;26.47;27.57;96376.59;5065072;28;20105;-25
2021/04/10 06:50:06;;;;;;;7.47;0.85;;;;;;;26.45;27.95;96379.31;5067642;28;20549;-24
2021/04/10 06:52:38;;;;;;;6.22;0.80;;;;;;;26.46;27.97;96380.13;5055188;28;20024;-26
2021/04/10 06:55:15;;;;;;;2.25;0.60;;;;;;;26.46;27.88;96394.13;5061936;28;20798;-25
2021/04/10 06:57:53;;;;;;;4.72;0.70;;;;;;;26.46;27.91;96381.00;5066894;28;20032;-28
2021/04/10 07:00:19;;;;;;;3.35;0.88;;;;;;;26.48;27.99;96383.53;5061826;27;20028;-25
2021/04/10 07:02:44;;;;;;;5.03;0.82;;;;;;;26.47;27.82;96381.84;5060781;28;20507;-28
2021/04/10 07:05:10;;;;;;;6.00;0.90;;;;;;;26.45;27.88;96373.19;5047354;28;20557;-25
2021/04/10 07:07:36;;;;;;;4.20;0.93;;;;;;;26.45;27.88;96374.06;5060888;28;20028;-27
2021/04/10 07:10:04;;;;;;;9.15;1.25;;;;;;;26.45;27.97;96378.44;5064008;28;20039;-25
2021/04/10 07:12:29;;;;;;;26.20;1.80;;;;;;;26.45;27.84;96388.97;5063526;28;20039;-27
2021/04/10 07:14:55;;;;;;;17.05;1.80;;;;;;;26.45;28.03;96399.47;5059443;28;20024;-28
2021/04/10 07:17:20;;;;;;;14.23;1.50;;;;;;;26.44;28.21;96400.41;5061941;28;20547;-26
2021/04/10 07:19:45;;;;;;;7.10;1.60;;;;;;;26.43;28.03;96396.09;5064827;28;20024;-27
2021/04/10 07:22:15;;;;;;;15.27;1.00;;;;;;;26.42;28.22;96397.03;5064032;28;20032;-27
2021/04/10 07:24:59;;;;;;;10.45;1.20;;;;;;;26.41;28.11;96403.22;5063723;28;20683;-25
2021/04/10 07:27:25;;;;;;;16.70;1.30;;;;;;;26.41;28.03;96397.97;5063129;28;20299;-28
2021/04/10 07:29:54;;;;;;;4.28;0.85;;;;;;;26.39;28.04;96400.69;5064014;28;20029;-24
2021/04/10 07:32:26;;;;;;;10.30;1.15;;;;;;;26.40;28.19;96407.66;5062859;28;20044;-25
2021/04/10 07:34:52;;;;;;;7.38;1.73;;;;;;;26.39;28.26;96399.88;5063370;28;20731;-26
2021/04/10 07:37:33;;;;;;;6.15;0.90;;;;;;;26.38;28.29;96401.63;5064142;28;20024;-24
2021/04/10 07:39:59;;;;;;;;;;;;;;;26.39;28.43;96405.13;5065084;28;20042;-25
2021/04/10 07:42:26;;;;;;;18.20;1.10;;;;;;;26.38;28.23;96408.69;5064981;28;19916;-27
2021/04/10 07:44:51;;;;;;;10.50;0.98;;;;;;;26.37;28.23;96409.59;5065392;28;20038;-24
2021/04/10 07:47:17;;;;;;;13.68;1.38;;;;;;;26.35;28.24;96410.56;5067013;28;20040;-23
2021/04/10 07:49:42;;;;;;;6.85;1.00;;;;;;;26.34;28.39;96411.50;5069686;28;20089;-23
2021/04/10 07:52:08;;;;;;;32.25;1.83;;;;;;;26.33;28.44;96412.44;5065644;28;20036;-29
2021/04/10 07:54:41;;;;;;;43.45;3.33;;;;;;;26.33;28.33;96415.06;5064462;28;20027;-26
2021/04/10 07:57:07;;;;;;;58.10;3.13;;;;;;;26.33;28.38;96417.69;5065726;28;20454;-24
2021/04/10 07:59:53;;;;;;;70.13;4.28;;;;;;;26.34;28.58;96419.38;5059848;28;20038;-24
2021/04/10 08:02:19;;;;;;;68.05;4.60;;;;;;;26.34;28.32;96416.75;5062137;28;20044;-25
2021/04/10 08:05:05;;;;;;;61.85;4.13;;;;;;;26.34;28.50;96426.41;5065521;28;21141;-27
2021/04/10 08:07:32;;;;;;;56.05;3.05;;;;;;;26.35;28.39;96422.84;5063126;28;20024;-24
2021/04/10 08:09:58;;;;;;;50.00;2.78;;;;;;;26.34;28.31;96419.38;5061358;28;20185;-25
2021/04/10 08:12:33;;;;;;;28.02;2.20;;;;;;;26.33;28.52;96412.44;5063165;28;20032;-24
2021/04/10 08:14:58;;;;;;;41.70;2.55;;;;;;;26.33;28.36;96420.31;5064251;28;20124;-26
2021/04/10 08:17:53;;;;;;;26.25;2.13;;;;;;;26.32;28.33;96416.00;5062535;28;20049;-27
2021/04/10 08:20:29;;;;;;;23.17;1.88;;;;;;;26.31;28.44;96419.56;5053793;28;20046;-27
2021/04/10 08:23:21;;;;;;;18.20;1.77;;;;;;;26.30;28.26;96425.75;5064089;28;20035;-28
2021/04/10 08:25:46;;;;;;;13.25;1.35;;;;;;;26.28;27.13;96429.41;5066442;28;20029;-26
2021/04/10 08:28:12;;;;;;;13.68;1.45;;;;;;;26.24;27.26;96434.00;5066910;28;20036;-24
2021/04/10 08:30:37;;;;;;;12.35;1.80;;;;;;;26.19;27.00;96433.41;5061637;28;20044;-27
2021/04/10 08:33:03;;;;;;;43.10;2.42;;;;;;;26.14;26.93;96432.84;5067775;28;20028;-26
2021/04/10 08:35:29;;;;;;;45.20;2.33;;;;;;;26.12;26.94;96437.34;5054153;28;20484;-29
2021/04/10 08:37:59;;;;;;;26.10;1.85;;;;;;;26.06;26.84;96433.31;5064992;28;20030;-26
2021/04/10 08:40:24;;;;;;;17.90;1.75;;;;;;;26.02;26.88;96434.41;5062150;28;20042;-28
2021/04/10 08:42:50;;;;;;;16.67;1.67;;;;;;;25.98;26.60;96428.53;5063234;28;20028;-22
2021/04/10 08:45:15;;;;;;;18.00;1.83;;;;;;;25.94;26.78;96435.72;5061314;27;20031;-27
2021/04/10 08:47:41;;;;;;;37.58;2.42;;;;;;;25.93;26.82;96422.72;5064298;28;20028;-28
2021/04/10 08:50:10;;;;;;;23.27;1.90;;;;;;;25.91;26.84;96432.44;5057968;28;20035;-23
2021/04/10 08:52:35;;;;;;;9.95;1.80;;;;;;;25.89;26.22;96429.06;5055734;28;20028;-28
2021/04/10 08:55:01;;;;;;;5.57;1.17;;;;;;;25.83;25.79;96431.09;5060471;28;20109;-25
2021/04/10 08:57:41;;;;;;;5.90;1.25;;;;;;;25.73;24.96;96419.47;5056543;28;20027;-28
2021/04/10 09:00:16;;;;;;;7.35;1.27;;;;;;;25.62;25.06;96411.41;5057761;28;20024;-25
2021/04/10 09:02:52;;;;;;;5.22;0.93;;;;;;;25.53;25.18;96413.59;5052638;28;20024;-26
2021/04/10 09:05:18;;;;;;;12.27;1.48;;;;;;;25.50;25.41;96419.00;5053285;28;20016;-25
2021/04/10 09:07:43;;;;;;;40.67;2.58;;;;;;;25.49;25.78;96414.69;5052375;28;20028;-29
2021/04/10 09:10:08;;;;;;;20.13;1.90;;;;;;;25.51;25.91;96420.69;5064441;28;20412;-26
2021/04/10 09:12:36;;;;;;;19.67;2.22;;;;;;;25.52;25.86;96419.75;5068786;28;20028;-28
2021/04/10 09:15:08;;;;;;;18.30;1.60;;;;;;;25.54;26.02;96415.25;5044643;28;20032;-25
2021/04/10 09:18:02;;;;;;;22.15;2.05;;;;;;;25.57;26.36;96420.38;5059624;28;20032;-25
2021/04/10 09:20:45;;;;;;;12.68;1.88;;;;;;;25.60;26.26;96421.13;5062195;28;20806;-23
2021/04/10 09:23:30;;;;;;;12.15;2.30;;;;;;;25.62;26.27;96422.72;5065127;28;20025;-29
2021/04/10 09:26:04;;;;;;;11.15;1.98;;;;;;;25.65;26.50;96426.94;5069542;28;20064;-28
2021/04/10 09:28:29;;;;;;;10.10;3.17;;;;;;;25.67;26.51;96425.91;5068419;28;20040;-29
2021/04/10 09:30:55;;;;;;;8.07;1.90;;;;;;;25.69;26.41;96413.56;5083066;27;20037;-27
2021/04/10 09:33:33;;;;;;;11.45;1.98;;;;;;;25.72;26.41;96411.69;5069376;28;20024;-26
2021/04/10 09:35:58;;;;;;;16.45;2.33;;;;;;;25.74;26.65;96415.91;5065929;28;20033;-26
2021/04/10 09:38:47;;;;;;;11.45;2.03;;;;;;;25.76;26.68;96408.78;5066658;28;20158;-27
2021/04/10 09:41:12;;;;;;;6.25;1.85;;;;;;;25.79;26.53;96416.50;5065507;28;20111;-27
2021/04/10 09:44:06;;;;;;;5.78;1.50;;;;;;;25.81;26.61;96422.47;5067808;28;20415;-27
2021/04/10 09:46:35;;;;;;;6.03;1.73;;;;;;;25.82;26.67;96418.91;5067180;28;20110;-26
2021/04/10 09:49:00;;;;;;;12.20;1.67;;;;;;;25.85;26.74;96411.81;5062468;28;20506;-26
2021/04/10 09:51:26;;;;;;;15.43;2.05;;;;;;;25.87;26.76;96416.03;5064554;28;20024;-26
2021/04/10 09:53:51;;;;;;;7.53;1.40;;;;;;;25.89;26.88;96408.06;5067788;28;20028;-27
2021/04/10 09:56:17;;;;;;;9.15;1.90;;;;;;;25.89;26.94;96408.91;5072284;28;20016;-24
2021/04/10 09:58:47;;;;;;;6.10;1.40;;;;;;;25.90;26.92;96410.59;5064175;28;20492;-28
2021/04/10 10:01:18;;;;;;;8.80;1.92;;;;;;;25.92;27.05;96403.47;5067406;28;20127;-28
2021/04/10 10:03:46;;;;;;;7.63;1.45;;;;;;;25.93;26.82;96405.16;5067617;28;20107;-24
2021/04/10 10:06:20;;;;;;;7.65;1.48;;;;;;;25.95;27.05;96402.44;5067765;28;20071;-29
2021/04/10 10:08:46;;;;;;;8.88;1.63;;;;;;;25.96;26.96;96398.88;5066271;28;20039;-27
2021/04/10 10:11:11;;;;;;;6.75;1.70;;;;;;;25.97;27.04;96408.44;5066970;28;20032;-27
2021/04/10 10:13:37;;;;;;;6.78;1.55;;;;;;;25.99;27.13;96398.69;5062547;28;20168;-26
2021/04/10 10:16:02;;;;;;;16.95;2.05;;;;;;;26.00;27.09;96405.63;5067664;28;20036;-24
2021/04/10 10:18:34;;;;;;;12.10;1.65;;;;;;;26.01;27.18;96407.31;5033434;28;20039;-26
2021/04/10 10:21:00;;;;;;;16.05;1.70;;;;;;;26.03;27.28;96404.59;5068325;28;20047;-26
2021/04/10 10:23:27;;;;;;;11.00;1.85;;;;;;;26.02;27.14;96406.41;5066732;28;20135;-25
2021/04/10 10:25:53;;;;;;;8.15;2.10;;;;;;;26.04;27.23;96406.28;5069782;28;20032;-25
2021/04/10 10:28:19;;;;;;;9.32;1.83;;;;;;;26.05;27.38;96403.56;5063913;28;20028;-28
2021/04/10 10:30:44;;;;;;;13.43;2.00;;;;;;;26.05;27.45;96400.94;5064486;27;20067;-24
2021/04/10 10:33:10;;;;;;;12.52;1.50;;;;;;;26.08;27.40;96397.28;5069484;28;20031;-26
2021/04/10 10:35:35;;;;;;;7.03;1.70;;;;;;;26.07;27.42;96399.09;5062389;28;21317;-25
2021/04/10 10:38:07;;;;;;;8.13;1.60;;;;;;;26.07;27.77;96396.47;5065985;28;20038;-26
2021/04/10 10:40:33;;;;;;;14.88;1.92;;;;;;;26.08;27.62;96390.25;5065849;28;20081;-26
2021/04/10 10:43:06;;;;;;;12.35;2.22;;;;;;;26.09;27.69;96391.94;5064595;28;20816;-27
2021/04/10 10:45:47;;;;;;;5.95;1.70;;;;;;;26.11;27.76;96391.84;5064449;27;20101;-26
2021/04/10 10:48:24;;;;;;;6.53;1.83;;;;;;;26.12;27.68;96384.84;5068830;28;20797;-26
2021/04/10 10:50:51;;;;;;;22.23;1.67;;;;;;;26.12;27.35;96382.22;5067565;28;20048;-27
2021/04/10 10:53:22;;;;;;;8.13;2.25;;;;;;;26.09;26.95;96381.44;5067879;28;20024;-25
2021/04/10 10:56:01;;;;;;;6.60;1.50;;;;;;;26.06;26.75;96376.41;5072188;28;20024;-26
2021/04/10 10:58:37;;;;;;;5.15;1.02;;;;;;;26.03;26.59;96379.19;5068467;28;20712;-25
2021/04/10 11:01:13;;;;;;;14.15;1.50;;;;;;;26.01;26.36;96380.22;5064042;28;20155;-27
2021/04/10 11:03:42;;;;;;;23.42;1.70;;;;;;;25.98;26.48;96375.16;5068133;28;20024;-28
2021/04/10 11:06:08;;;;;;;19.05;1.92;;;;;;;25.97;26.64;96371.69;5068719;28;20106;-24
2021/04/10 11:08:33;;;;;;;4.70;1.20;;;;;;;25.97;26.42;96379.56;5067027;28;20756;-27
2021/04/10 11:10:59;;;;;;;8.75;1.42;;;;;;;25.96;26.21;96372.63;5066599;28;20025;-24
2021/04/10 11:13:24;;;;;;;6.53;1.35;;;;;;;25.93;25.88;96368.41;5063190;28;20047;-23
2021/04/10 11:15:50;;;;;;;7.30;0.88;;;;;;;25.90;25.57;96365.94;5051444;28;20048;-26
2021/04/10 11:18:31;;;;;;;3.30;1.10;;;;;;;25.88;25.26;96364.34;5064880;28;20063;-24
2021/04/10 11:21:17;;;;;;;4.60;0.90;;;;;;;25.86;25.32;96361.00;5066258;28;20020;-25
2021/04/10 11:24:02;;;;;;;5.00;0.90;;;;;;;25.82;25.26;96362.97;5066491;28;20567;-27
2021/04/10 11:26:37;;;;;;;2.75;0.90;;;;;;;25.78;24.44;96359.66;5064748;28;20036;-27
2021/04/10 11:29:15;;;;;;;2.47;1.10;;;;;;;25.72;25.03;96348.69;5068606;28;20052;-26
2021/04/10 11:31:40;;;;;;;4.25;1.00;;;;;;;25.68;25.02;96350.66;5062770;28;20344;-24
2021/04/10 11:34:34;;;;;;;3.15;0.98;;;;;;;25.64;24.73;96336.91;5065348;28;20843;-25
2021/04/10 11:37:00;;;;;;;2.92;0.93;;;;;;;25.63;24.95;96347.47;5065489;28;20036;-27